sensor_id;sensor_type;location;lat;lon;timestamp;temperature;humidity
40996;DHT22;26723;57.478;12.066;2024-02-26T00:01:17;4.20;99.90
40996;DHT22;26723;57.478;12.066;2024-02-26T00:04:25;4.20;99.90
40996;DHT22;26723;57.478;12.066;2024-02-26T00:07:34;4.30;99.90
40996;DHT22;26723;57.478;12.066;2024-02-26T00:10:42;4.30;99.90
40996;DHT22;26723;57.478;12.066;2024-02-26T00:13:53;4.20;99.90
40996;DHT22;26723;57.478;12.066;2024-02-26T00:17:01;4.20;99.90
40996;DHT22;26723;57.478;12.066;2024-02-26T00:20:11;4.30;99.90
40996;DHT22;26723;57.478;12.066;2024-02-26T00:23:20;4.30;99.90
40996;DHT22;26723;57.478;12.066;2024-02-26T00:26:29;4.40;99.90
40996;DHT22;26723;57.478;12.066;2024-02-26T00:29:39;4.30;99.90
40996;DHT22;26723;57.478;12.066;2024-02-26T00:32:47;4.40;99.90
40996;DHT22;26723;57.478;12.066;2024-02-26T00:35:58;4.40;99.90
40996;DHT22;26723;57.478;12.066;2024-02-26T00:39:07;4.40;99.90
40996;DHT22;26723;57.478;12.066;2024-02-26T00:42:15;4.30;99.90
40996;DHT22;26723;57.478;12.066;2024-02-26T00:45:25;4.40;99.90
40996;DHT22;26723;57.478;12.066;2024-02-26T00:48:33;4.40;99.90
40996;DHT22;26723;57.478;12.066;2024-02-26T00:51:41;4.40;99.90
40996;DHT22;26723;57.478;12.066;2024-02-26T00:54:50;4.40;99.90
40996;DHT22;26723;57.478;12.066;2024-02-26T00:57:58;4.30;99.90
40996;DHT22;26723;57.478;12.066;2024-02-26T01:01:07;4.40;99.90
40996;DHT22;26723;57.478;12.066;2024-02-26T01:04:16;4.30;99.90
40996;DHT22;26723;57.478;12.066;2024-02-26T01:07:24;4.40;99.90
40996;DHT22;26723;57.478;12.066;2024-02-26T01:10:33;4.40;99.90
40996;DHT22;26723;57.478;12.066;2024-02-26T01:13:41;4.40;99.90
40996;DHT22;26723;57.478;12.066;2024-02-26T01:16:51;4.40;99.90
40996;DHT22;26723;57.478;12.066;2024-02-26T01:19:59;4.40;99.90
40996;DHT22;26723;57.478;12.066;2024-02-26T01:23:07;4.40;99.90
40996;DHT22;26723;57.478;12.066;2024-02-26T01:26:16;4.40;99.90
40996;DHT22;26723;57.478;12.066;2024-02-26T01:29:24;4.40;99.90
40996;DHT22;26723;57.478;12.066;2024-02-26T01:32:33;4.40;99.90
40996;DHT22;26723;57.478;12.066;2024-02-26T01:35:43;4.40;99.90
40996;DHT22;26723;57.478;12.066;2024-02-26T01:38:51;4.40;99.90
40996;DHT22;26723;57.478;12.066;2024-02-26T01:41:59;4.40;99.90
40996;DHT22;26723;57.478;12.066;2024-02-26T01:45:11;4.40;99.90
40996;DHT22;26723;57.478;12.066;2024-02-26T01:48:23;4.50;99.90
40996;DHT22;26723;57.478;12.066;2024-02-26T01:51:33;4.40;99.90
40996;DHT22;26723;57.478;12.066;2024-02-26T01:54:44;4.40;99.90
40996;DHT22;26723;57.478;12.066;2024-02-26T01:57:53;4.40;99.90
40996;DHT22;26723;57.478;12.066;2024-02-26T02:01:02;4.40;99.90
40996;DHT22;26723;57.478;12.066;2024-02-26T02:04:12;4.40;99.90
40996;DHT22;26723;57.478;12.066;2024-02-26T02:07:21;4.40;99.90
40996;DHT22;26723;57.478;12.066;2024-02-26T02:10:31;4.40;99.90
40996;DHT22;26723;57.478;12.066;2024-02-26T02:13:39;4.40;99.90
40996;DHT22;26723;57.478;12.066;2024-02-26T02:16:47;4.50;99.90
40996;DHT22;26723;57.478;12.066;2024-02-26T02:19:57;4.40;99.90
40996;DHT22;26723;57.478;12.066;2024-02-26T02:23:09;4.40;99.90
40996;DHT22;26723;57.478;12.066;2024-02-26T02:26:17;4.40;99.90
40996;DHT22;26723;57.478;12.066;2024-02-26T02:29:26;4.40;99.90
40996;DHT22;26723;57.478;12.066;2024-02-26T02:32:36;4.40;99.90
40996;DHT22;26723;57.478;12.066;2024-02-26T02:35:44;4.40;99.90
40996;DHT22;26723;57.478;12.066;2024-02-26T02:38:58;4.40;99.90
40996;DHT22;26723;57.478;12.066;2024-02-26T02:42:06;4.40;99.90
40996;DHT22;26723;57.478;12.066;2024-02-26T02:45:15;4.40;99.90
40996;DHT22;26723;57.478;12.066;2024-02-26T02:48:23;4.40;99.90
40996;DHT22;26723;57.478;12.066;2024-02-26T02:51:32;4.30;99.90
40996;DHT22;26723;57.478;12.066;2024-02-26T02:54:41;4.40;99.90
40996;DHT22;26723;57.478;12.066;2024-02-26T02:57:50;4.30;99.90
40996;DHT22;26723;57.478;12.066;2024-02-26T03:00:58;4.40;99.90
40996;DHT22;26723;57.478;12.066;2024-02-26T03:04:08;4.30;99.90
40996;DHT22;26723;57.478;12.066;2024-02-26T03:07:16;4.30;99.90
40996;DHT22;26723;57.478;12.066;2024-02-26T03:10:25;4.30;99.90
40996;DHT22;26723;57.478;12.066;2024-02-26T03:13:34;4.40;99.90
40996;DHT22;26723;57.478;12.066;2024-02-26T03:16:43;4.30;99.90
40996;DHT22;26723;57.478;12.066;2024-02-26T03:19:51;4.30;99.90
40996;DHT22;26723;57.478;12.066;2024-02-26T03:23:01;4.20;99.90
40996;DHT22;26723;57.478;12.066;2024-02-26T03:26:11;4.20;99.90
40996;DHT22;26723;57.478;12.066;2024-02-26T03:29:21;4.20;99.90
40996;DHT22;26723;57.478;12.066;2024-02-26T03:32:29;4.20;99.90
40996;DHT22;26723;57.478;12.066;2024-02-26T03:35:38;4.30;99.90
40996;DHT22;26723;57.478;12.066;2024-02-26T03:38:46;4.30;99.90
40996;DHT22;26723;57.478;12.066;2024-02-26T03:41:56;4.20;99.90
40996;DHT22;26723;57.478;12.066;2024-02-26T03:45:05;4.20;99.90
40996;DHT22;26723;57.478;12.066;2024-02-26T03:48:13;4.20;99.90
40996;DHT22;26723;57.478;12.066;2024-02-26T03:51:22;4.30;99.90
40996;DHT22;26723;57.478;12.066;2024-02-26T03:54:32;4.30;99.90
40996;DHT22;26723;57.478;12.066;2024-02-26T03:57:42;4.30;99.90
40996;DHT22;26723;57.478;12.066;2024-02-26T04:00:50;4.30;99.90
40996;DHT22;26723;57.478;12.066;2024-02-26T04:04:00;4.20;99.90
40996;DHT22;26723;57.478;12.066;2024-02-26T04:07:08;4.30;99.90
40996;DHT22;26723;57.478;12.066;2024-02-26T04:10:18;4.20;99.90
40996;DHT22;26723;57.478;12.066;2024-02-26T04:13:27;4.20;99.90
40996;DHT22;26723;57.478;12.066;2024-02-26T04:16:36;4.20;99.90
40996;DHT22;26723;57.478;12.066;2024-02-26T04:19:44;4.20;99.90
40996;DHT22;26723;57.478;12.066;2024-02-26T04:22:52;4.20;99.90
40996;DHT22;26723;57.478;12.066;2024-02-26T04:26:01;4.20;99.90
40996;DHT22;26723;57.478;12.066;2024-02-26T04:29:11;4.20;99.90
40996;DHT22;26723;57.478;12.066;2024-02-26T04:32:19;4.20;99.90
40996;DHT22;26723;57.478;12.066;2024-02-26T04:35:27;4.10;99.90
40996;DHT22;26723;57.478;12.066;2024-02-26T04:38:36;4.10;99.90
40996;DHT22;26723;57.478;12.066;2024-02-26T04:41:45;4.20;99.90
40996;DHT22;26723;57.478;12.066;2024-02-26T04:44:54;4.20;99.90
40996;DHT22;26723;57.478;12.066;2024-02-26T04:48:04;4.20;99.90
40996;DHT22;26723;57.478;12.066;2024-02-26T04:51:13;4.20;99.90
40996;DHT22;26723;57.478;12.066;2024-02-26T04:54:21;4.10;99.90
40996;DHT22;26723;57.478;12.066;2024-02-26T04:57:30;4.10;99.90
40996;DHT22;26723;57.478;12.066;2024-02-26T05:00:40;4.20;99.90
40996;DHT22;26723;57.478;12.066;2024-02-26T05:03:48;4.20;99.90
40996;DHT22;26723;57.478;12.066;2024-02-26T05:06:59;4.20;99.90
40996;DHT22;26723;57.478;12.066;2024-02-26T05:10:08;4.20;99.90
40996;DHT22;26723;57.478;12.066;2024-02-26T05:13:16;4.20;99.90
40996;DHT22;26723;57.478;12.066;2024-02-26T05:16:26;4.20;99.90
40996;DHT22;26723;57.478;12.066;2024-02-26T05:19:37;4.20;99.90
40996;DHT22;26723;57.478;12.066;2024-02-26T05:22:45;4.20;99.90
40996;DHT22;26723;57.478;12.066;2024-02-26T05:25:54;4.20;99.90
40996;DHT22;26723;57.478;12.066;2024-02-26T05:29:02;4.20;99.90
40996;DHT22;26723;57.478;12.066;2024-02-26T05:32:12;4.10;99.90
40996;DHT22;26723;57.478;12.066;2024-02-26T05:35:20;4.10;99.90
40996;DHT22;26723;57.478;12.066;2024-02-26T05:38:28;4.20;99.90
40996;DHT22;26723;57.478;12.066;2024-02-26T05:41:37;4.20;99.90
40996;DHT22;26723;57.478;12.066;2024-02-26T05:44:45;4.20;99.90
40996;DHT22;26723;57.478;12.066;2024-02-26T05:47:55;4.20;99.90
40996;DHT22;26723;57.478;12.066;2024-02-26T05:51:04;4.10;99.90
40996;DHT22;26723;57.478;12.066;2024-02-26T05:54:13;4.20;99.90
40996;DHT22;26723;57.478;12.066;2024-02-26T05:57:21;4.10;99.90
40996;DHT22;26723;57.478;12.066;2024-02-26T06:00:30;4.20;99.90
40996;DHT22;26723;57.478;12.066;2024-02-26T06:03:40;4.20;99.90
40996;DHT22;26723;57.478;12.066;2024-02-26T06:06:48;4.10;99.90
40996;DHT22;26723;57.478;12.066;2024-02-26T06:09:57;4.10;99.90
40996;DHT22;26723;57.478;12.066;2024-02-26T06:13:05;4.20;99.90
40996;DHT22;26723;57.478;12.066;2024-02-26T06:16:13;4.20;99.90
40996;DHT22;26723;57.478;12.066;2024-02-26T06:19:23;4.20;99.90
40996;DHT22;26723;57.478;12.066;2024-02-26T06:22:32;4.20;99.90
40996;DHT22;26723;57.478;12.066;2024-02-26T06:25:40;4.20;99.90
40996;DHT22;26723;57.478;12.066;2024-02-26T06:28:49;4.20;99.90
40996;DHT22;26723;57.478;12.066;2024-02-26T06:31:59;4.20;99.90
40996;DHT22;26723;57.478;12.066;2024-02-26T06:35:09;4.30;99.90
40996;DHT22;26723;57.478;12.066;2024-02-26T06:38:18;4.30;99.90
40996;DHT22;26723;57.478;12.066;2024-02-26T06:41:29;4.30;99.90
40996;DHT22;26723;57.478;12.066;2024-02-26T06:44:38;4.20;99.90
40996;DHT22;26723;57.478;12.066;2024-02-26T06:47:47;4.20;99.90
40996;DHT22;26723;57.478;12.066;2024-02-26T06:50:56;4.20;99.90
40996;DHT22;26723;57.478;12.066;2024-02-26T06:54:05;4.20;99.90
40996;DHT22;26723;57.478;12.066;2024-02-26T06:57:13;4.30;99.90
40996;DHT22;26723;57.478;12.066;2024-02-26T07:00:22;4.30;99.90
40996;DHT22;26723;57.478;12.066;2024-02-26T07:03:30;4.30;99.90
40996;DHT22;26723;57.478;12.066;2024-02-26T07:06:41;4.30;99.90
40996;DHT22;26723;57.478;12.066;2024-02-26T07:09:52;4.30;99.90
40996;DHT22;26723;57.478;12.066;2024-02-26T07:13:02;4.30;99.90
40996;DHT22;26723;57.478;12.066;2024-02-26T07:16:10;4.30;99.90
40996;DHT22;26723;57.478;12.066;2024-02-26T07:19:18;4.30;99.90
40996;DHT22;26723;57.478;12.066;2024-02-26T07:22:28;4.30;99.90
40996;DHT22;26723;57.478;12.066;2024-02-26T07:25:36;4.30;99.90
40996;DHT22;26723;57.478;12.066;2024-02-26T07:28:45;4.30;99.90
40996;DHT22;26723;57.478;12.066;2024-02-26T07:31:53;4.30;99.90
40996;DHT22;26723;57.478;12.066;2024-02-26T07:35:02;4.40;99.90
40996;DHT22;26723;57.478;12.066;2024-02-26T07:38:12;4.30;99.90
40996;DHT22;26723;57.478;12.066;2024-02-26T07:41:37;4.40;99.90
40996;DHT22;26723;57.478;12.066;2024-02-26T07:44:46;4.40;99.90
40996;DHT22;26723;57.478;12.066;2024-02-26T07:47:54;4.40;99.90
40996;DHT22;26723;57.478;12.066;2024-02-26T07:51:03;4.40;99.90
40996;DHT22;26723;57.478;12.066;2024-02-26T07:54:13;4.40;99.90
40996;DHT22;26723;57.478;12.066;2024-02-26T07:57:23;4.50;99.90
40996;DHT22;26723;57.478;12.066;2024-02-26T08:00:31;4.50;99.90
40996;DHT22;26723;57.478;12.066;2024-02-26T08:03:40;4.50;99.90
40996;DHT22;26723;57.478;12.066;2024-02-26T08:06:50;4.50;99.90
40996;DHT22;26723;57.478;12.066;2024-02-26T08:10:00;4.70;99.90
40996;DHT22;26723;57.478;12.066;2024-02-26T08:13:09;4.60;99.90
40996;DHT22;26723;57.478;12.066;2024-02-26T08:16:17;4.60;99.90
40996;DHT22;26723;57.478;12.066;2024-02-26T08:19:26;4.60;99.90
40996;DHT22;26723;57.478;12.066;2024-02-26T08:22:34;4.60;99.90
40996;DHT22;26723;57.478;12.066;2024-02-26T08:25:44;4.60;99.90
40996;DHT22;26723;57.478;12.066;2024-02-26T08:28:52;4.60;99.90
40996;DHT22;26723;57.478;12.066;2024-02-26T08:32:03;4.60;99.90
40996;DHT22;26723;57.478;12.066;2024-02-26T08:35:14;4.70;99.90
40996;DHT22;26723;57.478;12.066;2024-02-26T08:38:22;4.60;99.90
40996;DHT22;26723;57.478;12.066;2024-02-26T08:41:32;4.70;99.90
40996;DHT22;26723;57.478;12.066;2024-02-26T08:44:41;4.70;99.90
40996;DHT22;26723;57.478;12.066;2024-02-26T08:47:49;4.80;99.90
40996;DHT22;26723;57.478;12.066;2024-02-26T08:50:57;4.80;99.90
40996;DHT22;26723;57.478;12.066;2024-02-26T08:54:06;4.80;99.90
40996;DHT22;26723;57.478;12.066;2024-02-26T08:57:15;4.90;99.90
40996;DHT22;26723;57.478;12.066;2024-02-26T09:00:23;4.90;99.90
40996;DHT22;26723;57.478;12.066;2024-02-26T09:03:32;4.90;99.90
40996;DHT22;26723;57.478;12.066;2024-02-26T09:06:40;4.90;99.90
40996;DHT22;26723;57.478;12.066;2024-02-26T09:09:48;5.00;99.90
40996;DHT22;26723;57.478;12.066;2024-02-26T09:12:59;5.00;99.90
40996;DHT22;26723;57.478;12.066;2024-02-26T09:16:09;5.20;99.90
40996;DHT22;26723;57.478;12.066;2024-02-26T09:19:19;5.20;99.90
40996;DHT22;26723;57.478;12.066;2024-02-26T09:22:27;5.30;99.90
40996;DHT22;26723;57.478;12.066;2024-02-26T09:25:36;5.40;99.90
40996;DHT22;26723;57.478;12.066;2024-02-26T09:28:45;5.50;99.90
40996;DHT22;26723;57.478;12.066;2024-02-26T09:31:53;5.50;99.90
40996;DHT22;26723;57.478;12.066;2024-02-26T09:35:02;5.60;99.90
40996;DHT22;26723;57.478;12.066;2024-02-26T09:38:10;5.70;99.90
40996;DHT22;26723;57.478;12.066;2024-02-26T09:41:18;5.70;99.90
40996;DHT22;26723;57.478;12.066;2024-02-26T09:44:29;5.80;99.90
40996;DHT22;26723;57.478;12.066;2024-02-26T09:47:41;5.70;99.90
40996;DHT22;26723;57.478;12.066;2024-02-26T09:50:50;5.80;99.90
40996;DHT22;26723;57.478;12.066;2024-02-26T09:54:00;5.90;99.90
40996;DHT22;26723;57.478;12.066;2024-02-26T09:57:14;6.00;99.90
40996;DHT22;26723;57.478;12.066;2024-02-26T10:00:27;6.00;99.90
40996;DHT22;26723;57.478;12.066;2024-02-26T10:03:42;6.00;99.90
40996;DHT22;26723;57.478;12.066;2024-02-26T10:06:51;6.00;99.90
40996;DHT22;26723;57.478;12.066;2024-02-26T10:10:00;6.00;99.90
40996;DHT22;26723;57.478;12.066;2024-02-26T10:13:09;6.00;99.90
40996;DHT22;26723;57.478;12.066;2024-02-26T10:16:20;6.00;99.90
40996;DHT22;26723;57.478;12.066;2024-02-26T10:19:29;6.10;99.90
40996;DHT22;26723;57.478;12.066;2024-02-26T10:22:41;6.20;99.90
40996;DHT22;26723;57.478;12.066;2024-02-26T10:25:52;6.30;99.90
40996;DHT22;26723;57.478;12.066;2024-02-26T10:29:02;6.40;99.90
40996;DHT22;26723;57.478;12.066;2024-02-26T10:32:11;6.50;99.90
40996;DHT22;26723;57.478;12.066;2024-02-26T10:35:20;6.50;99.90
40996;DHT22;26723;57.478;12.066;2024-02-26T10:38:30;6.60;99.90
40996;DHT22;26723;57.478;12.066;2024-02-26T10:41:40;6.60;99.90
40996;DHT22;26723;57.478;12.066;2024-02-26T10:44:50;6.50;99.90
40996;DHT22;26723;57.478;12.066;2024-02-26T10:48:00;6.60;99.90
40996;DHT22;26723;57.478;12.066;2024-02-26T10:51:11;6.70;99.90
40996;DHT22;26723;57.478;12.066;2024-02-26T10:54:21;7.30;99.90
40996;DHT22;26723;57.478;12.066;2024-02-26T10:57:37;7.90;99.90
40996;DHT22;26723;57.478;12.066;2024-02-26T11:00:49;8.10;99.90
40996;DHT22;26723;57.478;12.066;2024-02-26T11:03:59;8.30;99.90
40996;DHT22;26723;57.478;12.066;2024-02-26T11:07:11;8.60;99.90
40996;DHT22;26723;57.478;12.066;2024-02-26T11:10:20;8.50;99.90
40996;DHT22;26723;57.478;12.066;2024-02-26T11:13:30;8.70;99.90
40996;DHT22;26723;57.478;12.066;2024-02-26T11:16:43;9.00;99.90
40996;DHT22;26723;57.478;12.066;2024-02-26T11:19:55;8.80;99.90
40996;DHT22;26723;57.478;12.066;2024-02-26T11:23:04;8.60;99.90
40996;DHT22;26723;57.478;12.066;2024-02-26T11:26:14;8.90;99.90
40996;DHT22;26723;57.478;12.066;2024-02-26T11:29:23;8.60;99.90
40996;DHT22;26723;57.478;12.066;2024-02-26T11:32:33;8.50;99.90
40996;DHT22;26723;57.478;12.066;2024-02-26T11:35:45;8.50;99.90
40996;DHT22;26723;57.478;12.066;2024-02-26T11:38:55;8.30;99.90
40996;DHT22;26723;57.478;12.066;2024-02-26T11:42:05;8.20;99.90
40996;DHT22;26723;57.478;12.066;2024-02-26T11:45:54;8.00;99.90
40996;DHT22;26723;57.478;12.066;2024-02-26T11:49:30;7.90;99.90
40996;DHT22;26723;57.478;12.066;2024-02-26T11:52:40;7.80;99.90
40996;DHT22;26723;57.478;12.066;2024-02-26T11:56:03;7.90;99.90
40996;DHT22;26723;57.478;12.066;2024-02-26T11:59:37;7.90;99.90
40996;DHT22;26723;57.478;12.066;2024-02-26T12:02:46;7.90;99.90
40996;DHT22;26723;57.478;12.066;2024-02-26T12:05:55;7.90;99.90
40996;DHT22;26723;57.478;12.066;2024-02-26T12:09:05;8.00;99.90
40996;DHT22;26723;57.478;12.066;2024-02-26T12:12:18;8.10;99.90
40996;DHT22;26723;57.478;12.066;2024-02-26T12:15:30;8.20;99.90
40996;DHT22;26723;57.478;12.066;2024-02-26T12:18:40;8.30;99.90
40996;DHT22;26723;57.478;12.066;2024-02-26T12:21:51;8.10;99.90
40996;DHT22;26723;57.478;12.066;2024-02-26T12:25:03;8.00;99.90
40996;DHT22;26723;57.478;12.066;2024-02-26T12:28:14;7.90;99.90
40996;DHT22;26723;57.478;12.066;2024-02-26T12:31:23;7.80;99.90
40996;DHT22;26723;57.478;12.066;2024-02-26T12:34:31;7.70;99.90
40996;DHT22;26723;57.478;12.066;2024-02-26T12:37:40;7.60;99.90
40996;DHT22;26723;57.478;12.066;2024-02-26T12:40:52;7.50;99.90
40996;DHT22;26723;57.478;12.066;2024-02-26T12:44:01;7.40;99.90
40996;DHT22;26723;57.478;12.066;2024-02-26T12:47:09;7.40;99.90
40996;DHT22;26723;57.478;12.066;2024-02-26T12:50:23;7.30;99.90
40996;DHT22;26723;57.478;12.066;2024-02-26T12:53:32;7.20;99.90
40996;DHT22;26723;57.478;12.066;2024-02-26T12:56:41;7.20;99.90
40996;DHT22;26723;57.478;12.066;2024-02-26T12:59:50;7.10;99.90
40996;DHT22;26723;57.478;12.066;2024-02-26T13:02:59;7.20;99.90
40996;DHT22;26723;57.478;12.066;2024-02-26T13:06:08;7.10;99.90
40996;DHT22;26723;57.478;12.066;2024-02-26T13:09:17;7.10;99.90
40996;DHT22;26723;57.478;12.066;2024-02-26T13:12:27;7.10;99.90
40996;DHT22;26723;57.478;12.066;2024-02-26T13:15:37;7.20;99.90
40996;DHT22;26723;57.478;12.066;2024-02-26T13:18:45;7.10;99.90
40996;DHT22;26723;57.478;12.066;2024-02-26T13:21:54;7.10;99.90
40996;DHT22;26723;57.478;12.066;2024-02-26T13:25:02;7.10;99.90
40996;DHT22;26723;57.478;12.066;2024-02-26T13:28:15;7.10;99.90
40996;DHT22;26723;57.478;12.066;2024-02-26T13:31:24;7.10;99.90
40996;DHT22;26723;57.478;12.066;2024-02-26T13:34:32;7.10;99.90
40996;DHT22;26723;57.478;12.066;2024-02-26T13:37:42;7.10;99.90
40996;DHT22;26723;57.478;12.066;2024-02-26T13:40:50;7.00;99.90
40996;DHT22;26723;57.478;12.066;2024-02-26T13:44:00;7.20;99.90
40996;DHT22;26723;57.478;12.066;2024-02-26T13:47:08;7.20;99.90
40996;DHT22;26723;57.478;12.066;2024-02-26T13:50:17;7.20;99.90
40996;DHT22;26723;57.478;12.066;2024-02-26T13:53:28;7.10;99.90
40996;DHT22;26723;57.478;12.066;2024-02-26T13:56:40;7.10;99.90
40996;DHT22;26723;57.478;12.066;2024-02-26T13:59:52;7.10;99.90
40996;DHT22;26723;57.478;12.066;2024-02-26T14:03:01;7.10;99.90
40996;DHT22;26723;57.478;12.066;2024-02-26T14:06:09;7.10;99.90
40996;DHT22;26723;57.478;12.066;2024-02-26T14:09:18;7.10;99.90
40996;DHT22;26723;57.478;12.066;2024-02-26T14:12:34;7.00;99.90
40996;DHT22;26723;57.478;12.066;2024-02-26T14:15:44;6.90;99.90
40996;DHT22;26723;57.478;12.066;2024-02-26T14:18:52;7.00;99.90
40996;DHT22;26723;57.478;12.066;2024-02-26T14:22:02;7.00;99.90
40996;DHT22;26723;57.478;12.066;2024-02-26T14:25:10;7.00;99.90
40996;DHT22;26723;57.478;12.066;2024-02-26T14:28:19;6.90;99.90
40996;DHT22;26723;57.478;12.066;2024-02-26T14:31:36;6.90;99.90
40996;DHT22;26723;57.478;12.066;2024-02-26T14:34:47;6.80;99.90
40996;DHT22;26723;57.478;12.066;2024-02-26T14:37:56;6.90;99.90
40996;DHT22;26723;57.478;12.066;2024-02-26T14:41:07;6.90;99.90
40996;DHT22;26723;57.478;12.066;2024-02-26T14:44:17;6.90;99.90
40996;DHT22;26723;57.478;12.066;2024-02-26T14:47:27;6.90;99.90
40996;DHT22;26723;57.478;12.066;2024-02-26T14:50:35;6.90;99.90
40996;DHT22;26723;57.478;12.066;2024-02-26T14:53:43;6.90;99.90
40996;DHT22;26723;57.478;12.066;2024-02-26T14:56:52;6.90;99.90
40996;DHT22;26723;57.478;12.066;2024-02-26T15:00:00;6.80;99.90
40996;DHT22;26723;57.478;12.066;2024-02-26T15:03:11;6.70;99.90
40996;DHT22;26723;57.478;12.066;2024-02-26T15:06:20;6.60;99.90
40996;DHT22;26723;57.478;12.066;2024-02-26T15:09:29;6.50;99.90
40996;DHT22;26723;57.478;12.066;2024-02-26T15:12:38;6.50;99.90
40996;DHT22;26723;57.478;12.066;2024-02-26T15:15:47;6.40;99.90
40996;DHT22;26723;57.478;12.066;2024-02-26T15:18:56;6.40;99.90
40996;DHT22;26723;57.478;12.066;2024-02-26T15:22:05;6.40;99.90
40996;DHT22;26723;57.478;12.066;2024-02-26T15:25:13;6.40;99.90
40996;DHT22;26723;57.478;12.066;2024-02-26T15:28:22;6.40;99.90
40996;DHT22;26723;57.478;12.066;2024-02-26T15:31:32;6.50;99.90
40996;DHT22;26723;57.478;12.066;2024-02-26T15:34:42;6.40;99.90
40996;DHT22;26723;57.478;12.066;2024-02-26T15:37:50;6.40;99.90
40996;DHT22;26723;57.478;12.066;2024-02-26T15:40:58;6.40;99.90
40996;DHT22;26723;57.478;12.066;2024-02-26T15:44:07;6.30;99.90
40996;DHT22;26723;57.478;12.066;2024-02-26T15:47:15;6.30;99.90
40996;DHT22;26723;57.478;12.066;2024-02-26T15:50:27;6.30;99.90
40996;DHT22;26723;57.478;12.066;2024-02-26T15:53:36;6.30;99.90
40996;DHT22;26723;57.478;12.066;2024-02-26T15:56:44;6.20;99.90
40996;DHT22;26723;57.478;12.066;2024-02-26T15:59:53;6.20;99.90
40996;DHT22;26723;57.478;12.066;2024-02-26T16:03:02;6.10;99.90
40996;DHT22;26723;57.478;12.066;2024-02-26T16:06:18;6.00;99.90
40996;DHT22;26723;57.478;12.066;2024-02-26T16:09:28;6.00;99.90
40996;DHT22;26723;57.478;12.066;2024-02-26T16:12:41;5.90;99.90
40996;DHT22;26723;57.478;12.066;2024-02-26T16:15:55;5.90;99.90
40996;DHT22;26723;57.478;12.066;2024-02-26T16:19:15;5.90;99.90
40996;DHT22;26723;57.478;12.066;2024-02-26T16:22:28;5.80;99.90
40996;DHT22;26723;57.478;12.066;2024-02-26T16:25:36;5.90;99.90
40996;DHT22;26723;57.478;12.066;2024-02-26T16:28:45;5.80;99.90
40996;DHT22;26723;57.478;12.066;2024-02-26T16:31:53;5.70;99.90
40996;DHT22;26723;57.478;12.066;2024-02-26T16:35:02;5.60;99.90
40996;DHT22;26723;57.478;12.066;2024-02-26T16:38:11;5.40;99.90
40996;DHT22;26723;57.478;12.066;2024-02-26T16:41:20;5.40;99.90
40996;DHT22;26723;57.478;12.066;2024-02-26T16:44:28;5.40;99.90
40996;DHT22;26723;57.478;12.066;2024-02-26T16:47:36;5.40;99.90
40996;DHT22;26723;57.478;12.066;2024-02-26T16:50:46;5.30;99.90
40996;DHT22;26723;57.478;12.066;2024-02-26T16:53:58;5.30;99.90
40996;DHT22;26723;57.478;12.066;2024-02-26T16:57:11;5.30;99.90
40996;DHT22;26723;57.478;12.066;2024-02-26T17:00:20;5.20;99.90
40996;DHT22;26723;57.478;12.066;2024-02-26T17:03:29;5.20;99.90
40996;DHT22;26723;57.478;12.066;2024-02-26T17:06:39;5.10;99.90
40996;DHT22;26723;57.478;12.066;2024-02-26T17:09:49;5.10;99.90
40996;DHT22;26723;57.478;12.066;2024-02-26T17:12:58;5.00;99.90
40996;DHT22;26723;57.478;12.066;2024-02-26T17:16:07;5.00;99.90
40996;DHT22;26723;57.478;12.066;2024-02-26T17:19:16;5.00;99.90
40996;DHT22;26723;57.478;12.066;2024-02-26T17:22:24;5.00;99.90
40996;DHT22;26723;57.478;12.066;2024-02-26T17:25:35;5.00;99.90
40996;DHT22;26723;57.478;12.066;2024-02-26T17:28:43;4.90;99.90
40996;DHT22;26723;57.478;12.066;2024-02-26T17:31:52;4.90;99.90
40996;DHT22;26723;57.478;12.066;2024-02-26T17:35:00;4.80;99.90
40996;DHT22;26723;57.478;12.066;2024-02-26T17:38:08;4.80;99.90
40996;DHT22;26723;57.478;12.066;2024-02-26T17:41:18;4.70;99.90
40996;DHT22;26723;57.478;12.066;2024-02-26T17:44:33;4.60;99.90
40996;DHT22;26723;57.478;12.066;2024-02-26T17:47:41;4.60;99.90
40996;DHT22;26723;57.478;12.066;2024-02-26T17:50:50;4.60;99.90
40996;DHT22;26723;57.478;12.066;2024-02-26T17:53:58;4.60;99.90
40996;DHT22;26723;57.478;12.066;2024-02-26T17:57:08;4.50;99.90
40996;DHT22;26723;57.478;12.066;2024-02-26T18:00:19;4.60;99.90
40996;DHT22;26723;57.478;12.066;2024-02-26T18:03:28;4.50;99.90
40996;DHT22;26723;57.478;12.066;2024-02-26T18:06:36;4.40;99.90
40996;DHT22;26723;57.478;12.066;2024-02-26T18:09:46;4.50;99.90
40996;DHT22;26723;57.478;12.066;2024-02-26T18:12:55;4.40;99.90
40996;DHT22;26723;57.478;12.066;2024-02-26T18:16:06;4.50;99.90
40996;DHT22;26723;57.478;12.066;2024-02-26T18:19:15;4.50;99.90
40996;DHT22;26723;57.478;12.066;2024-02-26T18:22:23;4.40;99.90
40996;DHT22;26723;57.478;12.066;2024-02-26T18:25:31;4.30;99.90
40996;DHT22;26723;57.478;12.066;2024-02-26T18:28:41;4.40;99.90
40996;DHT22;26723;57.478;12.066;2024-02-26T18:31:49;4.40;99.90
40996;DHT22;26723;57.478;12.066;2024-02-26T18:34:58;4.40;99.90
40996;DHT22;26723;57.478;12.066;2024-02-26T18:38:06;4.30;99.90
40996;DHT22;26723;57.478;12.066;2024-02-26T18:41:20;4.30;99.90
40996;DHT22;26723;57.478;12.066;2024-02-26T18:44:33;4.30;99.90
40996;DHT22;26723;57.478;12.066;2024-02-26T18:47:42;4.30;99.90
40996;DHT22;26723;57.478;12.066;2024-02-26T18:50:56;4.30;99.90
40996;DHT22;26723;57.478;12.066;2024-02-26T18:54:05;4.20;99.90
40996;DHT22;26723;57.478;12.066;2024-02-26T18:57:13;4.20;99.90
40996;DHT22;26723;57.478;12.066;2024-02-26T19:00:23;4.30;99.90
40996;DHT22;26723;57.478;12.066;2024-02-26T19:03:31;4.30;99.90
40996;DHT22;26723;57.478;12.066;2024-02-26T19:06:40;4.30;99.90
40996;DHT22;26723;57.478;12.066;2024-02-26T19:09:48;4.30;99.90
40996;DHT22;26723;57.478;12.066;2024-02-26T19:12:59;4.30;99.90
40996;DHT22;26723;57.478;12.066;2024-02-26T19:16:09;4.30;99.90
40996;DHT22;26723;57.478;12.066;2024-02-26T19:19:19;4.30;99.90
40996;DHT22;26723;57.478;12.066;2024-02-26T19:22:29;4.20;99.90
40996;DHT22;26723;57.478;12.066;2024-02-26T19:25:37;4.30;99.90
40996;DHT22;26723;57.478;12.066;2024-02-26T19:28:46;4.20;99.90
40996;DHT22;26723;57.478;12.066;2024-02-26T19:31:55;4.20;99.90
40996;DHT22;26723;57.478;12.066;2024-02-26T19:35:05;4.30;99.90
40996;DHT22;26723;57.478;12.066;2024-02-26T19:38:13;4.20;99.90
40996;DHT22;26723;57.478;12.066;2024-02-26T19:41:23;4.20;99.90
40996;DHT22;26723;57.478;12.066;2024-02-26T19:44:32;4.10;99.90
40996;DHT22;26723;57.478;12.066;2024-02-26T19:47:41;4.10;99.90
40996;DHT22;26723;57.478;12.066;2024-02-26T19:50:51;4.00;99.90
40996;DHT22;26723;57.478;12.066;2024-02-26T19:54:02;4.00;99.90
40996;DHT22;26723;57.478;12.066;2024-02-26T19:57:12;4.00;99.90